地図

経路データ

SID SEASON NUMBER BASIN SUBBASIN NAME ISO_TIME NATURE LAT LON WMO_WIND WMO_PRES WMO_AGENCY TRACK_TYPE DIST2LAND LANDFALL IFLAG USA_AGENCY USA_ATCF_ID USA_LAT USA_LON USA_RECORD USA_STATUS USA_WIND USA_PRES USA_SSHS USA_R34_NE USA_R34_SE USA_R34_SW USA_R34_NW USA_R50_NE USA_R50_SE USA_R50_SW USA_R50_NW USA_R64_NE USA_R64_SE USA_R64_SW USA_R64_NW USA_POCI USA_ROCI USA_RMW USA_EYE TOKYO_LAT TOKYO_LON TOKYO_GRADE TOKYO_WIND TOKYO_PRES TOKYO_R50_DIR TOKYO_R50_LONG TOKYO_R50_SHORT TOKYO_R30_DIR TOKYO_R30_LONG TOKYO_R30_SHORT TOKYO_LAND CMA_LAT CMA_LON CMA_CAT CMA_WIND CMA_PRES HKO_LAT HKO_LON HKO_CAT HKO_WIND HKO_PRES NEWDELHI_LAT NEWDELHI_LON NEWDELHI_GRADE NEWDELHI_WIND NEWDELHI_PRES NEWDELHI_CI NEWDELHI_DP NEWDELHI_POCI REUNION_LAT REUNION_LON REUNION_TYPE REUNION_WIND REUNION_PRES REUNION_TNUM REUNION_CI REUNION_RMW REUNION_R34_NE REUNION_R34_SE REUNION_R34_SW REUNION_R34_NW REUNION_R50_NE REUNION_R50_SE REUNION_R50_SW REUNION_R50_NW REUNION_R64_NE REUNION_R64_SE REUNION_R64_SW REUNION_R64_NW BOM_LAT BOM_LON BOM_TYPE BOM_WIND BOM_PRES BOM_TNUM BOM_CI BOM_RMW BOM_R34_NE BOM_R34_SE BOM_R34_SW BOM_R34_NW BOM_R50_NE BOM_R50_SE BOM_R50_SW BOM_R50_NW BOM_R64_NE BOM_R64_SE BOM_R64_SW BOM_R64_NW BOM_ROCI BOM_POCI BOM_EYE BOM_POS_METHOD BOM_PRES_METHOD NADI_LAT NADI_LON NADI_CAT NADI_WIND NADI_PRES WELLINGTON_LAT WELLINGTON_LON WELLINGTON_WIND WELLINGTON_PRES DS824_LAT DS824_LON DS824_STAGE DS824_WIND DS824_PRES TD9636_LAT TD9636_LON TD9636_STAGE TD9636_WIND TD9636_PRES TD9635_LAT TD9635_LON TD9635_WIND TD9635_PRES TD9635_ROCI NEUMANN_LAT NEUMANN_LON NEUMANN_CLASS NEUMANN_WIND NEUMANN_PRES MLC_LAT MLC_LON MLC_CLASS MLC_WIND MLC_PRES USA_GUST BOM_GUST BOM_GUST_PER REUNION_GUST REUNION_GUST_PER USA_SEAHGT USA_SEARAD_NE USA_SEARAD_SE USA_SEARAD_SW USA_SEARAD_NW STORM_SPEED STORM_DIR
1944274N33316 1944 64 NA NA NOT_NAMED 1944-09-30 00:00:00 TS 33.1000 -44.1000 35 hurdat_atl main 1687 1653 O_____________ hurdat_atl AL101944 33.1000 -44.1000 TS 35 0 7 348
1944274N33316 1944 64 NA NA NOT_NAMED 1944-09-30 03:00:00 TS 33.4500 -44.1998 main 1643 1609 P_____________ AL101944 33.4500 -44.1998 TS 35 0 7 347
1944274N33316 1944 64 NA NA NOT_NAMED 1944-09-30 06:00:00 TS 33.8000 -44.3000 35 hurdat_atl main 1609 1574 O_____________ hurdat_atl AL101944 33.8000 -44.3000 TS 35 0 7 347
1944274N33316 1944 64 NA NA NOT_NAMED 1944-09-30 09:00:00 TS 34.1500 -44.4001 main 1564 1530 P_____________ AL101944 34.1500 -44.4001 TS 37 0 7 347
1944274N33316 1944 64 NA NA NOT_NAMED 1944-09-30 12:00:00 TS 34.5000 -44.5000 40 hurdat_atl main 1530 1496 O_____________ hurdat_atl AL101944 34.5000 -44.5000 TS 40 0 7 346
1944274N33316 1944 64 NA NA NOT_NAMED 1944-09-30 15:00:00 TS 34.8500 -44.6075 main 1486 1452 P_____________ AL101944 34.8500 -44.6075 TS 40 0 7 347
1944274N33316 1944 64 NA NA NOT_NAMED 1944-09-30 18:00:00 TS 35.2000 -44.7000 40 hurdat_atl main 1452 1418 O_____________ hurdat_atl AL101944 35.2000 -44.7000 TS 40 0 7 350
1944274N33316 1944 64 NA NA NOT_NAMED 1944-09-30 21:00:00 TS 35.5425 -44.7577 main 1418 1379 P_____________ AL101944 35.5425 -44.7577 TS 42 0 7 354
1944274N33316 1944 64 NA NA NOT_NAMED 1944-10-01 00:00:00 TS 35.9000 -44.8000 45 hurdat_atl main 1379 1339 O_____________ hurdat_atl AL101944 35.9000 -44.8000 TS 45 0 8 354
1944274N33316 1944 64 NA NA NOT_NAMED 1944-10-01 03:00:00 TS 36.2925 -44.8500 main 1335 1296 P_____________ AL101944 36.2925 -44.8500 TS 45 0 8 354
1944274N33316 1944 64 NA NA NOT_NAMED 1944-10-01 06:00:00 TS 36.7000 -44.9000 45 hurdat_atl main 1296 1253 O_____________ hurdat_atl AL101944 36.7000 -44.9000 TS 45 0 8 354
1944274N33316 1944 64 NA NA NOT_NAMED 1944-10-01 09:00:00 TS 37.0850 -44.9648 main 1253 1214 P_____________ AL101944 37.0850 -44.9648 TS 45 0 8 354
1944274N33316 1944 64 NA NA NOT_NAMED 1944-10-01 12:00:00 TS 37.5000 -45.0000 45 hurdat_atl main 1214 1167 O_____________ hurdat_atl AL101944 37.5000 -45.0000 TS 45 0 9 0
1944274N33316 1944 64 NA NA NOT_NAMED 1944-10-01 15:00:00 TS 37.9849 -44.9872 main 1167 1125 P_____________ AL101944 37.9849 -44.9872 TS 45 0 10 5
1944274N33316 1944 64 NA NA NOT_NAMED 1944-10-01 18:00:00 TS 38.5000 -44.9000 45 hurdat_atl main 1125 1085 O_____________ hurdat_atl AL101944 38.5000 -44.9000 TS 45 0 10 10
1944274N33316 1944 64 NA NA NOT_NAMED 1944-10-01 21:00:00 TS 38.9997 -44.7667 main 1085 1056 P_____________ AL101944 38.9997 -44.7667 TS 42 0 10 17
1944274N33316 1944 64 NA NA NOT_NAMED 1944-10-02 00:00:00 TS 39.5000 -44.5000 40 hurdat_atl main 1056 1036 O_____________ hurdat_atl AL101944 39.5000 -44.5000 TS 40 0 11 27
1944274N33316 1944 64 NA NA NOT_NAMED 1944-10-02 03:00:00 TS 39.9989 -44.1185 main 1036 1027 P_____________ AL101944 39.9989 -44.1185 TS 37 0 13 37
1944274N33316 1944 64 NA NA NOT_NAMED 1944-10-02 06:00:00 TS 40.5000 -43.5000 35 hurdat_atl main 1031 1029 O_____________ hurdat_atl AL101944 40.5000 -43.5000 TS 35 0 15 49
1944274N33316 1944 64 NA NA NOT_NAMED 1944-10-02 09:00:00 TS 40.9929 -42.5893 main 1049 1049 P_____________ AL101944 40.9929 -42.5893 TS 32 -1 18 56
1944274N33316 1944 64 NA NA NOT_NAMED 1944-10-02 12:00:00 TS 41.5000 -41.5000 30 hurdat_atl main 1085 1085 O_____________ hurdat_atl AL101944 41.5000 -41.5000 TD 30 -1 19 57
1944274N33316 1944 64 NA NA NOT_NAMED 1944-10-02 15:00:00 TS 42.0342 -40.4207 main 1129 1123 P_____________ AL101944 42.0342 -40.4207 TD 30 -1 20 56
1944274N33316 1944 64 NA NA NOT_NAMED 1944-10-02 18:00:00 TS 42.6000 -39.3000 30 hurdat_atl main 1172 1172 O_____________ hurdat_atl AL101944 42.6000 -39.3000 TD 30 -1 20 55
1944274N33316 1944 64 NA NA NOT_NAMED 1944-10-02 21:00:00 TS 43.1947 -38.1597 main 1216 1216 P_____________ AL101944 43.1947 -38.1597 TD 30 -1 21 54
1944274N33316 1944 64 NA NA NOT_NAMED 1944-10-03 00:00:00 ET 43.8000 -37.0000 30 hurdat_atl main 1273 O_____________ hurdat_atl AL101944 43.8000 -37.0000 EX 30 -4 21 54

IBTrACS Databaseについて

本データベースは、米国NOAAが公開する1842年以降の世界の熱帯低気圧のベストトラックデータアーカイブInternational Best Track Archive for Climate Stewardship (IBTrACS)を、ウェブで閲覧しやすい形式に変換したものです。

最終更新日:2021-12-03